sensor_id;sensor_type;location;lat;lon;timestamp;temperature;humidity
21518;DHT22;61765;45.794;24.150;2023-02-01T00:06:46;7.60;85.10
21518;DHT22;61765;45.794;24.150;2023-02-01T00:14:54;7.70;85.00
21518;DHT22;61765;45.794;24.150;2023-02-01T00:22:59;7.80;84.80
21518;DHT22;61765;45.794;24.150;2023-02-01T00:31:07;7.70;85.20
21518;DHT22;61765;45.794;24.150;2023-02-01T00:39:13;7.80;84.80
21518;DHT22;61765;45.794;24.150;2023-02-01T00:47:22;7.90;84.90
21518;DHT22;61765;45.794;24.150;2023-02-01T00:55:29;7.90;85.10
21518;DHT22;61765;45.794;24.150;2023-02-01T01:03:38;7.90;85.00
21518;DHT22;61765;45.794;24.150;2023-02-01T01:11:44;7.70;84.60
21518;DHT22;61765;45.794;24.150;2023-02-01T01:19:52;7.70;85.20
21518;DHT22;61765;45.794;24.150;2023-02-01T01:28:01;7.60;85.10
21518;DHT22;61765;45.794;24.150;2023-02-01T01:36:10;7.80;85.40
21518;DHT22;61765;45.794;24.150;2023-02-01T01:52:55;7.80;85.10
21518;DHT22;61765;45.794;24.150;2023-02-01T02:01:02;7.50;84.80
21518;DHT22;61765;45.794;24.150;2023-02-01T02:09:11;7.30;85.40
21518;DHT22;61765;45.794;24.150;2023-02-01T02:17:26;7.20;85.50
21518;DHT22;61765;45.794;24.150;2023-02-01T02:25:46;7.20;85.80
21518;DHT22;61765;45.794;24.150;2023-02-01T02:34:07;7.00;86.00
21518;DHT22;61765;45.794;24.150;2023-02-01T02:42:19;7.00;86.00
21518;DHT22;61765;45.794;24.150;2023-02-01T02:50:46;6.70;86.00
21518;DHT22;61765;45.794;24.150;2023-02-01T02:59:08;6.60;86.20
21518;DHT22;61765;45.794;24.150;2023-02-01T03:16:16;6.60;85.70
21518;DHT22;61765;45.794;24.150;2023-02-01T03:24:29;7.00;85.50
21518;DHT22;61765;45.794;24.150;2023-02-01T03:32:43;7.00;84.20
21518;DHT22;61765;45.794;24.150;2023-02-01T03:41:13;7.20;83.10
21518;DHT22;61765;45.794;24.150;2023-02-01T03:49:26;7.30;83.80
21518;DHT22;61765;45.794;24.150;2023-02-01T03:57:48;7.40;83.10
21518;DHT22;61765;45.794;24.150;2023-02-01T04:06:09;7.50;82.70
21518;DHT22;61765;45.794;24.150;2023-02-01T04:14:15;7.40;81.60
21518;DHT22;61765;45.794;24.150;2023-02-01T04:22:24;7.40;81.30
21518;DHT22;61765;45.794;24.150;2023-02-01T04:30:31;7.60;81.70
21518;DHT22;61765;45.794;24.150;2023-02-01T04:38:39;7.30;81.80
21518;DHT22;61765;45.794;24.150;2023-02-01T04:46:46;7.50;81.50
21518;DHT22;61765;45.794;24.150;2023-02-01T04:54:54;7.70;81.40
21518;DHT22;61765;45.794;24.150;2023-02-01T05:03:01;7.70;81.00
21518;DHT22;61765;45.794;24.150;2023-02-01T05:11:09;7.40;81.10
21518;DHT22;61765;45.794;24.150;2023-02-01T05:19:35;7.50;81.70
21518;DHT22;61765;45.794;24.150;2023-02-01T05:27:43;7.20;82.90
21518;DHT22;61765;45.794;24.150;2023-02-01T05:35:49;7.40;83.20
21518;DHT22;61765;45.794;24.150;2023-02-01T05:43:58;7.20;81.80
21518;DHT22;61765;45.794;24.150;2023-02-01T05:52:04;7.00;81.30
21518;DHT22;61765;45.794;24.150;2023-02-01T06:00:13;6.60;82.70
21518;DHT22;61765;45.794;24.150;2023-02-01T06:08:18;7.30;82.80
21518;DHT22;61765;45.794;24.150;2023-02-01T06:16:29;7.50;82.60
21518;DHT22;61765;45.794;24.150;2023-02-01T06:24:35;7.40;84.40
21518;DHT22;61765;45.794;24.150;2023-02-01T06:32:43;6.40;87.10
21518;DHT22;61765;45.794;24.150;2023-02-01T06:40:52;6.30;88.00
21518;DHT22;61765;45.794;24.150;2023-02-01T06:49:01;5.60;88.60
21518;DHT22;61765;45.794;24.150;2023-02-01T06:57:06;6.20;88.70
21518;DHT22;61765;45.794;24.150;2023-02-01T07:05:14;6.70;87.20
21518;DHT22;61765;45.794;24.150;2023-02-01T07:13:20;7.10;86.60
21518;DHT22;61765;45.794;24.150;2023-02-01T07:21:28;7.10;86.30
21518;DHT22;61765;45.794;24.150;2023-02-01T07:29:33;7.50;85.80
21518;DHT22;61765;45.794;24.150;2023-02-01T07:37:42;7.50;86.00
21518;DHT22;61765;45.794;24.150;2023-02-01T07:45:51;7.70;85.60
21518;DHT22;61765;45.794;24.150;2023-02-01T07:53:59;7.90;84.90
21518;DHT22;61765;45.794;24.150;2023-02-01T08:02:05;8.30;84.10
21518;DHT22;61765;45.794;24.150;2023-02-01T08:10:15;7.80;84.70
21518;DHT22;61765;45.794;24.150;2023-02-01T08:18:20;8.10;84.80
21518;DHT22;61765;45.794;24.150;2023-02-01T08:26:30;8.70;84.00
21518;DHT22;61765;45.794;24.150;2023-02-01T08:34:36;9.30;83.00
21518;DHT22;61765;45.794;24.150;2023-02-01T08:42:44;9.50;81.60
21518;DHT22;61765;45.794;24.150;2023-02-01T08:50:56;9.80;80.80
21518;DHT22;61765;45.794;24.150;2023-02-01T08:59:04;9.60;80.40
21518;DHT22;61765;45.794;24.150;2023-02-01T09:07:11;10.00;79.90
21518;DHT22;61765;45.794;24.150;2023-02-01T09:15:21;10.20;79.40
21518;DHT22;61765;45.794;24.150;2023-02-01T09:23:27;10.10;78.90
21518;DHT22;61765;45.794;24.150;2023-02-01T09:31:35;10.10;78.80
21518;DHT22;61765;45.794;24.150;2023-02-01T09:39:45;9.80;79.80
21518;DHT22;61765;45.794;24.150;2023-02-01T09:47:55;9.80;79.00
21518;DHT22;61765;45.794;24.150;2023-02-01T09:56:05;9.60;79.50
21518;DHT22;61765;45.794;24.150;2023-02-01T10:04:15;9.40;79.70
21518;DHT22;61765;45.794;24.150;2023-02-01T10:12:54;9.40;79.80
21518;DHT22;61765;45.794;24.150;2023-02-01T10:21:10;9.20;80.60
21518;DHT22;61765;45.794;24.150;2023-02-01T10:29:24;9.30;80.60
21518;DHT22;61765;45.794;24.150;2023-02-01T10:37:34;8.90;81.40
21518;DHT22;61765;45.794;24.150;2023-02-01T10:45:40;8.40;83.50
21518;DHT22;61765;45.794;24.150;2023-02-01T10:53:52;8.30;84.40
21518;DHT22;61765;45.794;24.150;2023-02-01T11:02:00;8.20;84.60
21518;DHT22;61765;45.794;24.150;2023-02-01T11:18:37;8.90;84.60
21518;DHT22;61765;45.794;24.150;2023-02-01T11:26:46;9.80;82.00
21518;DHT22;61765;45.794;24.150;2023-02-01T11:34:54;10.40;80.00
21518;DHT22;61765;45.794;24.150;2023-02-01T11:43:13;10.60;79.00
21518;DHT22;61765;45.794;24.150;2023-02-01T11:51:30;11.50;77.20
21518;DHT22;61765;45.794;24.150;2023-02-01T12:08:31;11.60;75.40
21518;DHT22;61765;45.794;24.150;2023-02-01T12:16:48;11.70;75.00
21518;DHT22;61765;45.794;24.150;2023-02-01T12:25:20;11.90;73.10
21518;DHT22;61765;45.794;24.150;2023-02-01T12:33:39;12.10;72.10
21518;DHT22;61765;45.794;24.150;2023-02-01T12:41:52;11.30;72.60
21518;DHT22;61765;45.794;24.150;2023-02-01T12:50:22;11.00;74.00
21518;DHT22;61765;45.794;24.150;2023-02-01T12:58:38;10.90;73.70
21518;DHT22;61765;45.794;24.150;2023-02-01T13:06:51;10.20;75.00
21518;DHT22;61765;45.794;24.150;2023-02-01T13:15:04;9.90;76.60
21518;DHT22;61765;45.794;24.150;2023-02-01T13:23:23;10.10;76.40
21518;DHT22;61765;45.794;24.150;2023-02-01T13:40:36;10.40;74.80
21518;DHT22;61765;45.794;24.150;2023-02-01T13:48:48;10.30;74.60
21518;DHT22;61765;45.794;24.150;2023-02-01T13:56:58;10.30;74.00
21518;DHT22;61765;45.794;24.150;2023-02-01T14:05:08;10.10;75.40
21518;DHT22;61765;45.794;24.150;2023-02-01T14:13:25;10.30;75.40
21518;DHT22;61765;45.794;24.150;2023-02-01T14:21:33;10.60;75.00
21518;DHT22;61765;45.794;24.150;2023-02-01T14:29:55;10.80;74.50
21518;DHT22;61765;45.794;24.150;2023-02-01T14:38:02;10.60;74.70
21518;DHT22;61765;45.794;24.150;2023-02-01T14:46:12;10.60;74.80
21518;DHT22;61765;45.794;24.150;2023-02-01T14:54:19;10.40;75.30
21518;DHT22;61765;45.794;24.150;2023-02-01T15:02:28;10.30;75.70
21518;DHT22;61765;45.794;24.150;2023-02-01T15:10:42;10.40;76.20
21518;DHT22;61765;45.794;24.150;2023-02-01T15:19:07;10.20;76.20
21518;DHT22;61765;45.794;24.150;2023-02-01T15:27:13;10.20;76.40
21518;DHT22;61765;45.794;24.150;2023-02-01T15:35:39;10.10;76.70
21518;DHT22;61765;45.794;24.150;2023-02-01T15:44:01;10.00;77.10
21518;DHT22;61765;45.794;24.150;2023-02-01T15:52:22;10.10;77.00
21518;DHT22;61765;45.794;24.150;2023-02-01T16:00:34;10.00;77.30
21518;DHT22;61765;45.794;24.150;2023-02-01T16:08:54;10.10;77.60
21518;DHT22;61765;45.794;24.150;2023-02-01T16:17:00;10.00;77.70
21518;DHT22;61765;45.794;24.150;2023-02-01T16:25:09;9.80;78.10
21518;DHT22;61765;45.794;24.150;2023-02-01T16:33:19;9.70;78.30
21518;DHT22;61765;45.794;24.150;2023-02-01T16:41:27;9.60;78.60
21518;DHT22;61765;45.794;24.150;2023-02-01T16:49:33;9.60;78.60
21518;DHT22;61765;45.794;24.150;2023-02-01T16:57:43;9.60;78.70
21518;DHT22;61765;45.794;24.150;2023-02-01T17:05:51;9.60;78.10
21518;DHT22;61765;45.794;24.150;2023-02-01T17:14:01;9.70;77.60
21518;DHT22;61765;45.794;24.150;2023-02-01T17:22:09;9.70;77.20
21518;DHT22;61765;45.794;24.150;2023-02-01T17:30:19;9.80;76.80
21518;DHT22;61765;45.794;24.150;2023-02-01T17:38:25;9.80;76.60
21518;DHT22;61765;45.794;24.150;2023-02-01T17:46:33;9.60;76.60
21518;DHT22;61765;45.794;24.150;2023-02-01T17:54:38;9.50;77.40
21518;DHT22;61765;45.794;24.150;2023-02-01T18:02:46;9.50;77.90
21518;DHT22;61765;45.794;24.150;2023-02-01T18:10:53;9.60;77.60
21518;DHT22;61765;45.794;24.150;2023-02-01T18:19:04;9.80;77.10
21518;DHT22;61765;45.794;24.150;2023-02-01T18:27:11;9.70;76.40
21518;DHT22;61765;45.794;24.150;2023-02-01T18:35:22;9.30;77.40
21518;DHT22;61765;45.794;24.150;2023-02-01T18:43:28;9.10;78.00
21518;DHT22;61765;45.794;24.150;2023-02-01T18:51:36;9.00;78.20
21518;DHT22;61765;45.794;24.150;2023-02-01T18:59:44;9.40;78.10
21518;DHT22;61765;45.794;24.150;2023-02-01T19:07:53;9.20;78.10
21518;DHT22;61765;45.794;24.150;2023-02-01T19:16:03;9.40;78.60
21518;DHT22;61765;45.794;24.150;2023-02-01T19:24:12;9.40;78.20
21518;DHT22;61765;45.794;24.150;2023-02-01T19:32:18;9.50;78.20
21518;DHT22;61765;45.794;24.150;2023-02-01T19:40:27;9.50;78.60
21518;DHT22;61765;45.794;24.150;2023-02-01T19:48:32;9.40;78.70
21518;DHT22;61765;45.794;24.150;2023-02-01T19:56:42;9.60;78.10
21518;DHT22;61765;45.794;24.150;2023-02-01T20:04:50;9.00;79.00
21518;DHT22;61765;45.794;24.150;2023-02-01T20:12:59;9.00;79.70
21518;DHT22;61765;45.794;24.150;2023-02-01T20:21:04;9.10;79.60
21518;DHT22;61765;45.794;24.150;2023-02-01T20:29:13;9.50;79.50
21518;DHT22;61765;45.794;24.150;2023-02-01T20:37:28;9.50;79.60
21518;DHT22;61765;45.794;24.150;2023-02-01T20:45:36;9.30;80.30
21518;DHT22;61765;45.794;24.150;2023-02-01T20:53:43;9.50;79.80
21518;DHT22;61765;45.794;24.150;2023-02-01T21:01:52;9.40;79.60
21518;DHT22;61765;45.794;24.150;2023-02-01T21:09:58;9.10;80.30
21518;DHT22;61765;45.794;24.150;2023-02-01T21:18:08;9.00;80.40
21518;DHT22;61765;45.794;24.150;2023-02-01T21:26:17;9.10;80.10
21518;DHT22;61765;45.794;24.150;2023-02-01T21:34:25;9.30;79.50
21518;DHT22;61765;45.794;24.150;2023-02-01T21:42:31;9.30;78.90
21518;DHT22;61765;45.794;24.150;2023-02-01T21:50:39;9.20;79.10
21518;DHT22;61765;45.794;24.150;2023-02-01T21:58:45;9.30;79.40
21518;DHT22;61765;45.794;24.150;2023-02-01T22:06:53;9.30;80.10
21518;DHT22;61765;45.794;24.150;2023-02-01T22:14:59;9.40;79.30
21518;DHT22;61765;45.794;24.150;2023-02-01T22:23:07;9.50;79.20
21518;DHT22;61765;45.794;24.150;2023-02-01T22:31:12;9.60;79.50
21518;DHT22;61765;45.794;24.150;2023-02-01T22:39:21;9.50;79.40
21518;DHT22;61765;45.794;24.150;2023-02-01T22:47:27;9.50;79.20
21518;DHT22;61765;45.794;24.150;2023-02-01T22:55:37;9.60;79.30
21518;DHT22;61765;45.794;24.150;2023-02-01T23:03:43;9.40;79.60
21518;DHT22;61765;45.794;24.150;2023-02-01T23:11:52;9.30;80.20
21518;DHT22;61765;45.794;24.150;2023-02-01T23:19:58;9.30;80.40
21518;DHT22;61765;45.794;24.150;2023-02-01T23:28:06;9.40;80.40
21518;DHT22;61765;45.794;24.150;2023-02-01T23:36:13;9.50;80.10
21518;DHT22;61765;45.794;24.150;2023-02-01T23:44:22;9.50;80.30
21518;DHT22;61765;45.794;24.150;2023-02-01T23:52:27;9.60;80.60
